Portada
METAR-TAF:

METAR-TAF

Aeroports :

Aeroport Internacional de Phu Quoc

Phu Quoc, Vietnam

latitud: 10-10-18N, longitud: 103-59-28E, altitud: 11 m

Observació

L'informe es va fer fa 23 minuts, a les 03:30 UTC
Vent 6 kt del Nord-Est, variant entre Nord i Est
Temperatura 30°C
Humitat 55%
Pressió 1012 hPa
Visibilitat 10 km o més
sense núvols per sota de 1500 mi sense presència de cumulonimbus.

METAR: VVPQ 210330Z 05006KT 010V090 CAVOK 30/20 Q1012 NOSIG

Hora: 10:53 (03:53 UTC)

Pronòstic

L'informe es va fer fa 4 hores i 53 minuts, a les 23:00 UTC
Pronòstic vàlid del 21 a les 00 UTC al 21 a les 24 UTC
Vent 5 kt del Nord-Est
Visibilitat 10 km o més
Núvols disperses a una alçada de 1700 ft

TAF: VVPQ 202300Z 2100/2124 04005KT 9999 SCT017

Observacions i pronòstics meteorològics de més de 4000 aeroports (METAR i TAF).

Les estacions disponibles són els punts grocs i vermells al mapa.

Posi el ratolí al punt desitjat per veure el nom de l'estació.

Feu clic per veure les observacions i els pronòstics meteorològics.

Per canviar el mapa: feu clic els botons verds amb una creu de color negre per apropar; al botó verd amb un guió per allunyar la imatge; o en les fletxes verdes per a mapes adjacents.


METAR-TAF: